createdAt,value
2022-08-19T00:00:10.611Z,85.76
2022-08-19T00:02:38.080Z,86.02
2022-08-19T00:05:20.069Z,86.00
2022-08-19T00:07:48.428Z,85.99
2022-08-19T00:10:17.376Z,86.40
2022-08-19T00:12:47.014Z,86.96
2022-08-19T00:15:19.774Z,86.73
2022-08-19T00:17:48.528Z,86.50
2022-08-19T00:20:21.502Z,87.34
2022-08-19T00:22:49.406Z,86.43
2022-08-19T00:25:17.838Z,86.87
2022-08-19T00:27:45.387Z,86.87
2022-08-19T00:30:13.203Z,87.07
2022-08-19T00:32:40.996Z,87.04
2022-08-19T00:35:10.627Z,87.25
2022-08-19T00:37:44.022Z,86.86
2022-08-19T00:40:14.000Z,86.85
2022-08-19T00:42:42.463Z,86.69
2022-08-19T00:45:18.127Z,86.71
2022-08-19T00:47:46.808Z,86.56
2022-08-19T00:50:19.048Z,86.56
2022-08-19T00:52:51.496Z,87.01
2022-08-19T00:55:25.186Z,87.46
2022-08-19T00:58:01.460Z,87.72
2022-08-19T01:00:31.423Z,87.04
2022-08-19T01:02:58.965Z,87.03
2022-08-19T01:05:30.247Z,87.68
2022-08-19T01:08:01.719Z,87.51
2022-08-19T01:10:36.660Z,86.75
2022-08-19T01:13:05.765Z,86.89
2022-08-19T01:15:46.315Z,87.50
2022-08-19T01:18:17.630Z,87.27
2022-08-19T01:20:46.360Z,87.46
2022-08-19T01:23:15.826Z,87.51
2022-08-19T01:25:52.546Z,87.78
2022-08-19T01:28:33.631Z,88.07
2022-08-19T01:31:01.973Z,88.51
2022-08-19T01:33:35.909Z,88.50
2022-08-19T01:36:14.943Z,88.97
2022-08-19T01:38:44.650Z,89.24
2022-08-19T01:41:13.410Z,88.89
2022-08-19T01:44:12.410Z,88.82
2022-08-19T01:46:29.468Z,89.41
2022-08-19T01:48:57.558Z,89.22
2022-08-19T01:51:25.426Z,89.25
2022-08-19T01:53:54.064Z,90.00
2022-08-19T01:56:22.719Z,89.94
2022-08-19T01:59:06.783Z,89.52
2022-08-19T02:01:35.772Z,90.00
2022-08-19T02:04:03.810Z,89.98
2022-08-19T02:06:31.259Z,90.05
2022-08-19T02:08:58.750Z,89.63
2022-08-19T02:11:32.526Z,90.47
2022-08-19T02:14:03.612Z,90.74
2022-08-19T02:16:31.645Z,91.16
2022-08-19T02:19:02.815Z,91.01
2022-08-19T02:21:31.289Z,91.43
2022-08-19T02:23:59.284Z,91.30
2022-08-19T02:26:27.982Z,91.40
2022-08-19T02:28:57.002Z,91.83
2022-08-19T02:31:26.967Z,92.11
2022-08-19T02:33:56.916Z,91.78
2022-08-19T02:36:26.092Z,91.96
2022-08-19T02:38:55.532Z,91.32
2022-08-19T02:41:31.840Z,91.90
2022-08-19T02:44:31.052Z,91.75
2022-08-19T02:46:52.628Z,91.55
2022-08-19T02:49:20.800Z,92.13
2022-08-19T02:51:48.796Z,92.13
2022-08-19T02:54:16.288Z,91.67
2022-08-19T02:56:45.304Z,91.94
2022-08-19T02:59:13.156Z,91.88
2022-08-19T03:01:42.882Z,92.45
2022-08-19T03:04:14.091Z,92.21
2022-08-19T03:06:45.774Z,91.63
2022-08-19T03:09:15.227Z,92.08
2022-08-19T03:11:42.760Z,91.58
2022-08-19T03:14:11.907Z,91.85
2022-08-19T03:16:53.059Z,92.20
2022-08-19T03:19:22.281Z,91.57
2022-08-19T03:21:51.062Z,91.73
2022-08-19T03:24:20.331Z,92.17
2022-08-19T03:26:52.843Z,93.21
2022-08-19T03:29:30.463Z,92.78
2022-08-19T03:32:01.968Z,92.94
2022-08-19T03:34:35.527Z,93.59
2022-08-19T03:37:10.928Z,94.40
2022-08-19T03:39:41.140Z,94.31
2022-08-19T03:42:38.676Z,94.36
2022-08-19T03:44:57.456Z,94.85
2022-08-19T03:47:24.923Z,94.79
2022-08-19T03:49:52.417Z,94.17
2022-08-19T03:52:20.318Z,94.20
2022-08-19T03:54:47.784Z,93.75
2022-08-19T03:57:15.283Z,93.98
2022-08-19T03:59:42.921Z,94.40
2022-08-19T04:02:13.411Z,94.37
2022-08-19T04:04:44.503Z,94.97
2022-08-19T04:07:22.227Z,95.04
2022-08-19T04:09:51.376Z,94.83
2022-08-19T04:12:20.892Z,94.70
2022-08-19T04:14:48.410Z,94.59
2022-08-19T04:17:15.951Z,94.69
2022-08-19T04:19:43.915Z,95.55
2022-08-19T04:22:12.524Z,95.05
2022-08-19T04:24:40.006Z,95.33
2022-08-19T04:27:07.599Z,94.84
2022-08-19T04:29:35.412Z,95.75
2022-08-19T04:32:08.694Z,96.17
2022-08-19T04:35:01.154Z,95.78
2022-08-19T04:37:31.855Z,96.16
2022-08-19T04:40:25.417Z,96.38
2022-08-19T04:42:53.114Z,96.22
2022-08-19T04:45:22.882Z,96.74
2022-08-19T04:47:58.381Z,97.13
2022-08-19T04:50:27.357Z,97.22
2022-08-19T04:52:56.989Z,97.16
2022-08-19T04:55:26.683Z,97.98
2022-08-19T04:57:55.765Z,97.30
2022-08-19T05:00:24.158Z,97.86
2022-08-19T05:02:51.940Z,97.73
2022-08-19T05:05:20.696Z,98.05
2022-08-19T05:07:48.841Z,98.15
2022-08-19T05:10:16.419Z,97.64
2022-08-19T05:12:43.914Z,97.74
2022-08-19T05:15:12.104Z,98.44
2022-08-19T05:17:59.710Z,98.51
2022-08-19T05:20:45.782Z,98.07
2022-08-19T05:23:21.906Z,98.31
2022-08-19T05:25:52.836Z,98.70
2022-08-19T05:28:21.638Z,98.56
2022-08-19T05:30:51.469Z,98.35
2022-08-19T05:33:19.571Z,98.13
2022-08-19T05:35:47.185Z,98.65
2022-08-19T05:38:14.859Z,98.48
2022-08-19T05:40:43.760Z,98.47
2022-08-19T05:43:11.351Z,98.48
2022-08-19T05:45:42.897Z,98.76
2022-08-19T05:48:12.395Z,98.28
2022-08-19T05:50:42.426Z,98.61
2022-08-19T05:53:09.968Z,98.62
2022-08-19T05:55:39.442Z,99.13
2022-08-19T05:58:08.530Z,98.86
2022-08-19T06:00:38.360Z,99.02
2022-08-19T06:03:12.782Z,99.07
2022-08-19T06:05:51.664Z,99.72
2022-08-19T06:08:33.618Z,99.62
2022-08-19T06:11:23.365Z,99.72
2022-08-19T06:13:57.246Z,99.97
2022-08-19T06:16:29.840Z,99.63
2022-08-19T06:19:02.730Z,99.98
2022-08-19T06:21:31.636Z,99.86
2022-08-19T06:24:00.223Z,99.96
2022-08-19T06:26:28.569Z,99.65
2022-08-19T06:28:56.406Z,99.43
2022-08-19T06:31:29.858Z,99.63
2022-08-19T06:33:57.291Z,99.20
2022-08-19T06:36:38.598Z,99.30
2022-08-19T06:39:13.338Z,99.09
2022-08-19T06:41:52.537Z,98.82
2022-08-19T06:44:26.793Z,97.96
2022-08-19T06:46:56.510Z,98.56
2022-08-19T06:49:26.067Z,97.80
2022-08-19T06:51:54.196Z,97.43
2022-08-19T06:54:22.053Z,96.63
2022-08-19T06:56:51.165Z,97.03
2022-08-19T06:59:23.298Z,97.14
2022-08-19T07:01:54.939Z,97.15
2022-08-19T07:04:31.232Z,96.23
2022-08-19T07:07:19.917Z,95.60
2022-08-19T07:09:58.037Z,95.61
2022-08-19T07:12:38.090Z,94.33
2022-08-19T07:15:09.502Z,94.63
2022-08-19T07:17:40.235Z,94.18
2022-08-19T07:20:11.287Z,93.20
2022-08-19T07:22:40.870Z,92.86
2022-08-19T07:25:10.623Z,91.95
2022-08-19T07:27:39.729Z,91.63
2022-08-19T07:30:14.388Z,91.39
2022-08-19T07:32:43.343Z,91.35
2022-08-19T07:35:11.073Z,90.39
2022-08-19T07:37:40.113Z,90.59
2022-08-19T07:40:08.954Z,90.35
2022-08-19T07:42:36.766Z,89.07
2022-08-19T07:45:05.906Z,88.96
2022-08-19T07:47:47.459Z,88.59
2022-08-19T07:50:20.935Z,88.04
2022-08-19T07:52:50.759Z,87.60
2022-08-19T07:55:42.781Z,86.66
2022-08-19T07:58:15.884Z,86.75
2022-08-19T08:00:47.248Z,86.77
2022-08-19T08:03:18.159Z,85.73
2022-08-19T08:06:06.699Z,85.63
2022-08-19T08:08:48.011Z,85.30
2022-08-19T08:11:22.007Z,84.94
2022-08-19T08:14:00.908Z,85.06
2022-08-19T08:16:32.240Z,84.27
2022-08-19T08:19:00.265Z,83.17
2022-08-19T08:21:28.883Z,82.79
2022-08-19T08:23:56.762Z,82.59
2022-08-19T08:26:25.914Z,82.31
2022-08-19T08:28:54.515Z,81.46
2022-08-19T08:31:22.149Z,80.88
2022-08-19T08:33:49.870Z,79.75
2022-08-19T08:36:18.295Z,79.89
2022-08-19T08:38:46.855Z,79.17
2022-08-19T08:41:57.239Z,79.50
2022-08-19T08:44:37.490Z,78.48
2022-08-19T08:47:15.347Z,78.64
2022-08-19T08:49:52.456Z,78.26
2022-08-19T08:52:32.140Z,78.11
2022-08-19T08:55:10.761Z,77.15
2022-08-19T08:57:59.501Z,76.99
2022-08-19T09:00:53.336Z,76.72
2022-08-19T09:03:26.622Z,76.81
2022-08-19T09:06:03.291Z,75.43
2022-08-19T09:08:41.506Z,75.20
2022-08-19T09:11:41.997Z,73.54
2022-08-19T09:14:51.292Z,73.22
2022-08-19T09:17:36.397Z,72.46
2022-08-19T09:20:10.386Z,72.69
2022-08-19T09:22:40.493Z,72.44
2022-08-19T09:25:11.350Z,71.70
2022-08-19T09:27:43.623Z,71.28
2022-08-19T09:30:20.348Z,70.77
2022-08-19T09:32:52.901Z,70.37
2022-08-19T09:35:29.467Z,70.52
2022-08-19T09:37:59.454Z,70.75
2022-08-19T09:40:30.293Z,70.66
2022-08-19T09:43:10.046Z,70.93
2022-08-19T09:45:41.586Z,70.99
2022-08-19T09:48:09.398Z,70.42
2022-08-19T09:50:39.345Z,69.54
2022-08-19T09:53:22.644Z,68.85
2022-08-19T09:55:56.258Z,68.60
2022-08-19T09:58:28.487Z,69.16
2022-08-19T10:00:57.578Z,69.05
2022-08-19T10:03:30.143Z,68.15
2022-08-19T10:06:01.271Z,68.02
2022-08-19T10:08:35.700Z,67.71
2022-08-19T10:11:28.460Z,67.59
2022-08-19T10:13:53.355Z,68.11
2022-08-19T10:16:26.101Z,67.64
2022-08-19T10:18:58.962Z,68.65
2022-08-19T10:21:32.194Z,67.07
2022-08-19T10:24:04.989Z,67.17
2022-08-19T10:26:38.216Z,67.41
2022-08-19T10:29:09.258Z,67.82
2022-08-19T10:32:00.115Z,68.94
2022-08-19T10:34:28.560Z,66.88
2022-08-19T10:37:00.806Z,65.68
2022-08-19T10:39:41.057Z,65.82
2022-08-19T10:42:11.605Z,66.20
2022-08-19T10:44:39.219Z,66.25
2022-08-19T10:47:13.755Z,65.65
2022-08-19T10:50:12.181Z,65.53
2022-08-19T10:52:50.962Z,64.57
2022-08-19T10:55:43.479Z,64.67
2022-08-19T10:58:15.072Z,64.71
2022-08-19T11:00:46.921Z,65.08
2022-08-19T11:03:15.495Z,65.45
2022-08-19T11:05:42.952Z,65.58
2022-08-19T11:08:22.882Z,64.48
2022-08-19T11:10:57.739Z,63.85
2022-08-19T11:13:25.653Z,64.22
2022-08-19T11:16:07.341Z,64.26
2022-08-19T11:18:39.399Z,63.37
2022-08-19T11:21:20.071Z,63.20
2022-08-19T11:23:52.615Z,63.77
2022-08-19T11:26:23.146Z,63.57
2022-08-19T11:28:54.541Z,63.74
2022-08-19T11:31:29.104Z,63.03
2022-08-19T11:34:00.660Z,62.29
2022-08-19T11:36:29.082Z,62.84
2022-08-19T11:38:57.626Z,63.26
2022-08-19T11:41:26.453Z,61.89
2022-08-19T11:43:56.148Z,62.17
2022-08-19T11:46:27.029Z,62.36
2022-08-19T11:48:55.330Z,62.03
2022-08-19T11:51:25.833Z,61.07
2022-08-19T11:53:56.551Z,61.84
2022-08-19T11:56:26.679Z,62.18
2022-08-19T11:58:57.629Z,61.15
2022-08-19T12:01:27.385Z,60.61
2022-08-19T12:03:57.664Z,60.40
2022-08-19T12:06:32.651Z,61.31
2022-08-19T12:09:05.356Z,61.00
2022-08-19T12:11:34.670Z,60.81
2022-08-19T12:14:02.381Z,60.16
2022-08-19T12:16:33.721Z,61.02
2022-08-19T12:19:05.872Z,61.03
2022-08-19T12:21:36.454Z,60.29
2022-08-19T12:24:06.963Z,60.45
2022-08-19T12:26:52.399Z,59.90
2022-08-19T12:29:23.938Z,60.12
2022-08-19T12:31:52.450Z,59.46
2022-08-19T12:34:21.067Z,60.00
2022-08-19T12:36:50.255Z,60.22
2022-08-19T12:39:18.084Z,59.87
2022-08-19T12:41:55.029Z,58.80
2022-08-19T12:44:29.495Z,58.68
2022-08-19T12:47:00.136Z,59.04
2022-08-19T12:49:52.796Z,59.95
2022-08-19T12:52:23.093Z,59.03
2022-08-19T12:54:55.315Z,58.81
2022-08-19T12:57:34.058Z,57.80
2022-08-19T13:00:14.858Z,58.42
2022-08-19T13:02:46.707Z,58.27
2022-08-19T13:05:27.611Z,57.93
2022-08-19T13:08:00.403Z,58.29
2022-08-19T13:10:36.635Z,58.12
2022-08-19T13:13:08.025Z,58.82
2022-08-19T13:15:40.589Z,57.59
2022-08-19T13:18:11.292Z,57.58
2022-08-19T13:20:43.463Z,58.36
2022-08-19T13:23:20.254Z,57.43
2022-08-19T13:26:01.407Z,57.48
2022-08-19T13:28:49.714Z,57.73
2022-08-19T13:31:39.094Z,57.25
2022-08-19T13:34:07.763Z,57.18
2022-08-19T13:36:36.714Z,56.78
2022-08-19T13:39:05.857Z,56.98
2022-08-19T13:41:34.687Z,56.34
2022-08-19T13:44:02.958Z,57.27
2022-08-19T13:46:31.478Z,57.42
2022-08-19T13:48:59.078Z,56.57
2022-08-19T13:51:26.602Z,56.31
2022-08-19T13:53:54.407Z,56.39
2022-08-19T13:56:26.045Z,55.75
2022-08-19T13:58:54.491Z,55.54
2022-08-19T14:01:24.393Z,55.99
2022-08-19T14:03:52.845Z,56.44
2022-08-19T14:06:22.285Z,56.34
2022-08-19T14:08:50.069Z,57.04
2022-08-19T14:11:17.864Z,57.36
2022-08-19T14:13:45.592Z,57.33
2022-08-19T14:16:15.358Z,57.44
2022-08-19T14:18:44.129Z,58.38
2022-08-19T14:21:24.537Z,58.16
2022-08-19T14:23:53.153Z,58.30
2022-08-19T14:26:22.893Z,58.69
2022-08-19T14:28:51.038Z,58.54
2022-08-19T14:31:20.926Z,59.26
2022-08-19T14:33:49.862Z,59.70
2022-08-19T14:36:19.715Z,60.03
2022-08-19T14:38:47.346Z,60.18
2022-08-19T14:41:23.646Z,60.37
2022-08-19T14:43:53.428Z,60.48
2022-08-19T14:46:29.639Z,60.61
2022-08-19T14:48:57.545Z,60.43
2022-08-19T14:51:28.471Z,60.48
2022-08-19T14:53:56.389Z,60.38
2022-08-19T14:56:28.278Z,60.75
2022-08-19T14:58:56.205Z,60.53
2022-08-19T15:01:24.335Z,60.42
2022-08-19T15:03:54.747Z,61.16
2022-08-19T15:06:25.122Z,60.42
2022-08-19T15:08:54.300Z,60.01
2022-08-19T15:11:28.661Z,59.60
2022-08-19T15:13:57.607Z,60.17
2022-08-19T15:16:27.083Z,60.78
2022-08-19T15:18:58.592Z,61.05
2022-08-19T15:21:28.149Z,61.44
2022-08-19T15:23:59.162Z,61.95
2022-08-19T15:26:28.435Z,62.33
2022-08-19T15:28:55.936Z,62.72
2022-08-19T15:31:25.214Z,63.06
2022-08-19T15:33:58.523Z,62.89
2022-08-19T15:36:27.930Z,63.24
2022-08-19T15:38:57.365Z,62.99
2022-08-19T15:41:30.626Z,63.57
2022-08-19T15:44:09.862Z,63.44
2022-08-19T15:46:41.965Z,63.96
2022-08-19T15:49:13.520Z,63.93
2022-08-19T15:51:43.595Z,64.22
2022-08-19T15:54:17.315Z,64.82
2022-08-19T15:57:03.263Z,66.02
2022-08-19T15:59:49.354Z,66.08
2022-08-19T16:02:39.307Z,67.23
2022-08-19T16:05:30.864Z,67.89
2022-08-19T16:07:58.781Z,68.25
2022-08-19T16:10:28.234Z,68.79
2022-08-19T16:12:58.158Z,69.61
2022-08-19T16:15:30.637Z,69.53
2022-08-19T16:18:02.212Z,70.35
2022-08-19T16:20:31.522Z,69.87
2022-08-19T16:23:03.391Z,70.00
2022-08-19T16:25:30.991Z,70.46
2022-08-19T16:28:07.898Z,70.69
2022-08-19T16:30:39.277Z,70.36
2022-08-19T16:33:08.515Z,70.47
2022-08-19T16:35:37.103Z,70.82
2022-08-19T16:38:05.866Z,71.22
2022-08-19T16:40:34.334Z,71.29
2022-08-19T16:43:02.869Z,71.34
2022-08-19T16:45:30.995Z,71.94
2022-08-19T16:47:58.597Z,72.30
2022-08-19T16:50:47.798Z,72.68
2022-08-19T16:53:16.902Z,73.02
2022-08-19T16:55:49.931Z,74.06
2022-08-19T16:58:20.817Z,75.12
2022-08-19T17:01:01.863Z,75.36
2022-08-19T17:03:36.198Z,75.72
2022-08-19T17:06:21.206Z,76.47
2022-08-19T17:08:51.751Z,77.21
2022-08-19T17:11:22.603Z,77.50
2022-08-19T17:13:51.627Z,78.09
2022-08-19T17:16:25.067Z,78.26
2022-08-19T17:18:59.538Z,78.65
2022-08-19T17:21:32.178Z,78.74
2022-08-19T17:24:03.660Z,78.61
2022-08-19T17:26:31.358Z,78.51
2022-08-19T17:29:00.413Z,78.86
2022-08-19T17:31:30.559Z,79.05
2022-08-19T17:33:59.605Z,79.58
2022-08-19T17:36:31.581Z,80.21
2022-08-19T17:39:01.786Z,79.67
2022-08-19T17:41:30.491Z,80.04
2022-08-19T17:43:58.135Z,80.36
2022-08-19T17:46:26.044Z,80.23
2022-08-19T17:48:57.753Z,81.19
2022-08-19T17:51:25.202Z,81.34
2022-08-19T17:53:54.499Z,81.43
2022-08-19T17:56:23.582Z,81.10
2022-08-19T17:58:59.884Z,81.17
2022-08-19T18:01:39.022Z,81.70
2022-08-19T18:04:18.699Z,82.28
2022-08-19T18:06:53.212Z,82.39
2022-08-19T18:09:28.761Z,83.11
2022-08-19T18:12:16.262Z,82.66
2022-08-19T18:14:44.027Z,82.50
2022-08-19T18:17:17.165Z,82.85
2022-08-19T18:19:47.597Z,83.10
2022-08-19T18:22:28.590Z,83.17
2022-08-19T18:24:58.301Z,83.71
2022-08-19T18:27:27.863Z,83.40
2022-08-19T18:29:59.070Z,83.50
2022-08-19T18:32:36.716Z,84.11
2022-08-19T18:35:10.993Z,84.25
2022-08-19T18:37:40.705Z,83.83
2022-08-19T18:40:32.301Z,84.65
2022-08-19T18:43:18.990Z,84.93
2022-08-19T18:46:07.277Z,84.88
2022-08-19T18:48:55.066Z,84.89
2022-08-19T18:51:28.129Z,85.73
2022-08-19T18:53:58.619Z,85.61
2022-08-19T18:56:31.661Z,86.15
2022-08-19T18:59:00.551Z,85.56
2022-08-19T19:01:33.354Z,86.02
2022-08-19T19:04:05.896Z,86.36
2022-08-19T19:06:40.325Z,86.45
2022-08-19T19:09:17.537Z,86.65
2022-08-19T19:11:51.004Z,86.90
2022-08-19T19:14:48.772Z,87.19
2022-08-19T19:17:18.404Z,87.08
2022-08-19T19:19:46.192Z,87.11
2022-08-19T19:22:24.259Z,87.45
2022-08-19T19:24:54.170Z,87.77
2022-08-19T19:27:22.718Z,88.00
2022-08-19T19:29:52.293Z,88.31
2022-08-19T19:32:23.934Z,88.19
2022-08-19T19:34:51.809Z,88.85
2022-08-19T19:37:19.664Z,88.89
2022-08-19T19:39:48.171Z,88.87
2022-08-19T19:42:21.268Z,89.60
2022-08-19T19:44:52.377Z,90.05
2022-08-19T19:47:21.480Z,90.20
2022-08-19T19:50:13.371Z,90.29
2022-08-19T19:52:40.931Z,90.34
2022-08-19T19:55:15.537Z,90.58
2022-08-19T19:57:43.523Z,90.78
2022-08-19T20:00:13.448Z,90.60
2022-08-19T20:02:41.137Z,91.31
2022-08-19T20:05:08.874Z,91.14
2022-08-19T20:07:58.088Z,91.31
2022-08-19T20:10:26.891Z,91.22
2022-08-19T20:12:54.869Z,91.41
2022-08-19T20:15:24.123Z,91.84
2022-08-19T20:17:51.607Z,91.97
2022-08-19T20:20:19.315Z,91.75
2022-08-19T20:22:47.522Z,92.12
2022-08-19T20:25:19.029Z,91.93
2022-08-19T20:27:50.813Z,92.21
2022-08-19T20:30:21.997Z,92.69
2022-08-19T20:32:51.001Z,92.46
2022-08-19T20:35:21.309Z,92.71
2022-08-19T20:37:49.465Z,92.59
2022-08-19T20:40:21.901Z,92.65
2022-08-19T20:42:50.569Z,92.60
2022-08-19T20:45:32.800Z,93.15
2022-08-19T20:48:03.981Z,92.99
2022-08-19T20:50:35.141Z,93.15
2022-08-19T20:53:18.238Z,93.00
2022-08-19T20:55:51.076Z,93.21
2022-08-19T20:58:21.683Z,93.23
2022-08-19T21:00:50.443Z,92.76
2022-08-19T21:03:26.161Z,93.36
2022-08-19T21:05:54.465Z,93.34
2022-08-19T21:08:24.260Z,93.66
2022-08-19T21:10:54.252Z,93.59
2022-08-19T21:13:23.494Z,93.57
2022-08-19T21:15:51.533Z,93.74
2022-08-19T21:18:22.055Z,94.36
2022-08-19T21:20:50.381Z,93.59
2022-08-19T21:23:25.562Z,94.11
2022-08-19T21:25:55.471Z,94.35
2022-08-19T21:28:34.608Z,94.53
2022-08-19T21:31:06.581Z,94.19
2022-08-19T21:33:34.428Z,94.13
2022-08-19T21:36:03.003Z,94.30
2022-08-19T21:38:30.885Z,94.84
2022-08-19T21:40:58.877Z,94.64
2022-08-19T21:43:26.334Z,94.37
2022-08-19T21:45:53.767Z,94.93
2022-08-19T21:48:23.121Z,94.67
2022-08-19T21:50:50.876Z,94.92
2022-08-19T21:53:19.525Z,94.60
2022-08-19T21:55:53.690Z,94.76
2022-08-19T21:58:28.331Z,94.83
2022-08-19T22:00:59.874Z,94.81
2022-08-19T22:03:27.739Z,95.02
2022-08-19T22:05:55.301Z,95.35
2022-08-19T22:08:22.954Z,95.03
2022-08-19T22:10:51.040Z,95.21
2022-08-19T22:13:20.399Z,95.79
2022-08-19T22:15:51.776Z,95.62
2022-08-19T22:18:19.196Z,95.36
2022-08-19T22:20:47.961Z,95.48
2022-08-19T22:23:15.648Z,95.53
2022-08-19T22:25:47.142Z,96.14
2022-08-19T22:28:19.150Z,95.17
2022-08-19T22:30:55.991Z,95.84
2022-08-19T22:33:25.695Z,95.87
2022-08-19T22:35:53.894Z,96.30
2022-08-19T22:38:22.852Z,95.90
2022-08-19T22:40:52.698Z,95.86
2022-08-19T22:43:30.492Z,96.24
2022-08-19T22:46:00.213Z,95.99
2022-08-19T22:48:30.874Z,96.52
2022-08-19T22:51:18.873Z,96.14
2022-08-19T22:53:47.363Z,96.27
2022-08-19T22:56:18.411Z,96.73
2022-08-19T22:58:47.206Z,96.75
2022-08-19T23:01:27.327Z,96.77
2022-08-19T23:03:59.646Z,96.77
2022-08-19T23:06:33.544Z,96.79
2022-08-19T23:09:06.687Z,97.11
2022-08-19T23:11:41.649Z,97.37
2022-08-19T23:14:12.426Z,97.45
2022-08-19T23:16:41.939Z,97.03
2022-08-19T23:19:10.357Z,97.53
2022-08-19T23:21:42.848Z,97.48
2022-08-19T23:24:11.428Z,97.61
2022-08-19T23:26:59.768Z,97.58
2022-08-19T23:29:45.752Z,97.82
2022-08-19T23:32:16.148Z,97.97
2022-08-19T23:34:44.013Z,97.71
2022-08-19T23:37:11.762Z,98.20
2022-08-19T23:39:39.253Z,98.06
2022-08-19T23:42:11.353Z,98.26
2022-08-19T23:44:52.043Z,98.32
2022-08-19T23:47:21.165Z,97.37
2022-08-19T23:49:48.726Z,97.94
2022-08-19T23:52:16.199Z,98.14
2022-08-19T23:54:44.118Z,98.08
2022-08-19T23:57:14.277Z,97.88
2022-08-19T23:59:45.423Z,98.28
